createdAt,value
2022-11-03T00:00:42.328Z,53.40
2022-11-03T00:03:44.044Z,53.50
2022-11-03T00:06:47.932Z,53.50
2022-11-03T00:09:49.799Z,53.50
2022-11-03T00:12:53.820Z,53.50
2022-11-03T00:15:55.512Z,53.50
2022-11-03T00:18:57.245Z,53.50
2022-11-03T00:21:59.329Z,53.50
2022-11-03T00:25:01.110Z,53.60
2022-11-03T00:31:21.785Z,53.50
2022-11-03T00:34:23.515Z,53.50
2022-11-03T00:37:25.241Z,53.60
2022-11-03T00:40:26.929Z,53.50
2022-11-03T00:43:30.768Z,53.60
2022-11-03T00:46:35.957Z,53.60
2022-11-03T00:49:37.767Z,53.50
2022-11-03T00:52:39.545Z,53.60
2022-11-03T00:55:41.437Z,53.50
2022-11-03T00:58:43.849Z,53.50
2022-11-03T01:01:47.583Z,53.50
2022-11-03T01:05:08.243Z,53.50
2022-11-03T01:08:09.965Z,53.50
2022-11-03T01:11:36.474Z,53.50
2022-11-03T01:14:45.261Z,53.50
2022-11-03T01:17:46.959Z,53.50
2022-11-03T01:20:57.582Z,53.50
2022-11-03T01:24:03.824Z,53.50
2022-11-03T01:27:05.496Z,53.50
2022-11-03T01:30:07.677Z,53.50
2022-11-03T01:33:09.477Z,53.50
2022-11-03T01:36:12.112Z,53.50
2022-11-03T01:39:16.173Z,53.50
2022-11-03T01:42:17.859Z,53.50
2022-11-03T01:45:20.446Z,53.50
2022-11-03T01:48:23.046Z,53.50
2022-11-03T01:51:27.146Z,53.60
2022-11-03T01:54:30.800Z,53.60
2022-11-03T01:57:41.213Z,53.60
2022-11-03T02:00:45.873Z,53.60
2022-11-03T02:03:52.399Z,53.60
2022-11-03T02:07:07.452Z,53.60
2022-11-03T02:10:09.596Z,53.60
2022-11-03T02:13:18.268Z,53.60
2022-11-03T02:16:22.013Z,53.70
2022-11-03T02:19:46.513Z,53.60
2022-11-03T02:23:20.611Z,53.60
2022-11-03T02:26:22.548Z,53.60
2022-11-03T02:29:24.416Z,53.60
2022-11-03T02:32:33.369Z,53.60
2022-11-03T02:35:45.115Z,53.60
2022-11-03T02:39:10.656Z,53.60
2022-11-03T02:42:13.299Z,53.60
2022-11-03T02:45:19.039Z,53.60
2022-11-03T02:48:20.765Z,53.60
2022-11-03T02:51:23.200Z,53.60
2022-11-03T02:54:35.876Z,53.60
2022-11-03T02:57:46.133Z,53.60
2022-11-03T03:01:04.168Z,53.50
2022-11-03T03:04:07.951Z,53.60
2022-11-03T03:07:20.280Z,53.70
2022-11-03T03:10:26.371Z,53.60
2022-11-03T03:13:28.317Z,53.60
2022-11-03T03:16:35.643Z,53.60
2022-11-03T03:19:57.243Z,53.60
2022-11-03T03:23:18.186Z,53.60
2022-11-03T03:26:30.036Z,53.70
2022-11-03T03:30:07.407Z,53.60
2022-11-03T03:33:10.895Z,53.60
2022-11-03T03:36:16.723Z,53.60
2022-11-03T03:39:21.401Z,53.60
2022-11-03T03:42:26.225Z,53.60
2022-11-03T03:45:29.840Z,53.60
2022-11-03T03:48:31.544Z,53.60
2022-11-03T03:51:34.080Z,53.60
2022-11-03T03:54:36.190Z,53.60
2022-11-03T03:57:38.008Z,53.50
2022-11-03T04:00:40.358Z,53.50
2022-11-03T04:03:42.116Z,53.60
2022-11-03T04:06:43.799Z,53.50
2022-11-03T04:09:45.510Z,53.60
2022-11-03T04:13:06.220Z,53.50
2022-11-03T04:16:28.182Z,53.60
2022-11-03T04:19:48.776Z,53.60
2022-11-03T04:22:50.450Z,53.60
2022-11-03T04:25:55.201Z,53.60
2022-11-03T04:28:58.451Z,53.60
2022-11-03T04:32:00.171Z,53.60
2022-11-03T04:35:02.822Z,53.60
2022-11-03T04:38:20.050Z,53.60
2022-11-03T04:41:31.740Z,53.60
2022-11-03T04:44:33.675Z,53.60
2022-11-03T04:47:35.387Z,54.30
2022-11-03T04:50:37.076Z,53.60
2022-11-03T04:53:42.282Z,53.60
2022-11-03T04:56:44.094Z,54.10
2022-11-03T04:59:49.063Z,53.50
2022-11-03T05:02:55.781Z,53.50
2022-11-03T05:05:58.943Z,53.50
2022-11-03T05:09:14.564Z,53.50
2022-11-03T05:12:17.049Z,53.50
2022-11-03T05:15:38.109Z,53.50
2022-11-03T05:18:42.967Z,53.50
2022-11-03T05:21:45.046Z,53.50
2022-11-03T05:24:46.791Z,53.50
2022-11-03T05:27:48.538Z,53.60
2022-11-03T05:30:51.494Z,53.50
2022-11-03T05:33:56.602Z,53.50
2022-11-03T05:37:27.499Z,53.50
2022-11-03T05:40:29.361Z,53.50
2022-11-03T05:43:31.089Z,53.50
2022-11-03T05:46:35.268Z,53.50
2022-11-03T05:49:37.036Z,53.50
2022-11-03T05:52:38.773Z,53.50
2022-11-03T05:55:40.730Z,53.50
2022-11-03T05:58:44.181Z,54.00
2022-11-03T06:01:46.058Z,53.50
2022-11-03T06:04:49.273Z,53.50
2022-11-03T06:07:57.100Z,53.50
2022-11-03T06:11:01.403Z,53.50
2022-11-03T06:14:24.108Z,53.50
2022-11-03T06:17:28.566Z,53.40
2022-11-03T06:20:30.360Z,53.40
2022-11-03T06:23:34.122Z,53.40
2022-11-03T06:26:35.921Z,53.40
2022-11-03T06:29:37.635Z,53.40
2022-11-03T06:32:39.516Z,53.40
2022-11-03T06:35:41.569Z,53.40
2022-11-03T06:38:48.681Z,53.40
2022-11-03T06:41:51.645Z,53.40
2022-11-03T06:44:53.378Z,53.40
2022-11-03T06:47:55.675Z,53.40
2022-11-03T06:50:58.769Z,53.40
2022-11-03T06:54:02.474Z,53.50
2022-11-03T06:57:11.534Z,53.20
2022-11-03T07:00:34.181Z,53.20
2022-11-03T07:03:41.082Z,53.30
2022-11-03T07:06:45.166Z,53.30
2022-11-03T07:09:49.885Z,53.40
2022-11-03T07:12:52.171Z,53.40
2022-11-03T07:15:54.005Z,53.40
2022-11-03T07:18:57.031Z,53.40
2022-11-03T07:22:00.984Z,54.00
2022-11-03T07:25:06.233Z,53.40
2022-11-03T07:28:10.397Z,53.40
2022-11-03T07:31:25.196Z,53.40
2022-11-03T07:34:32.830Z,53.50
2022-11-03T07:37:34.744Z,53.40
2022-11-03T07:40:37.327Z,53.50
2022-11-03T07:43:39.090Z,53.40
2022-11-03T07:46:42.364Z,53.40
2022-11-03T07:49:45.067Z,53.40
2022-11-03T07:52:46.837Z,53.40
2022-11-03T07:55:48.879Z,53.50
2022-11-03T07:59:04.566Z,53.40
2022-11-03T08:02:21.085Z,53.50
2022-11-03T08:05:22.846Z,53.40
2022-11-03T08:08:24.577Z,53.50
2022-11-03T08:11:29.202Z,53.60
2022-11-03T08:14:31.959Z,53.60
2022-11-03T08:17:33.681Z,53.60
2022-11-03T08:20:35.461Z,53.60
2022-11-03T08:23:37.554Z,53.60
2022-11-03T08:26:39.372Z,53.60
2022-11-03T08:29:41.338Z,53.70
2022-11-03T08:32:43.059Z,53.60
2022-11-03T08:35:44.865Z,53.60
2022-11-03T08:38:46.606Z,53.70
2022-11-03T08:41:48.319Z,53.70
2022-11-03T08:44:50.031Z,53.60
2022-11-03T08:47:51.843Z,53.60
2022-11-03T08:50:54.637Z,53.60
2022-11-03T08:53:56.378Z,53.70
2022-11-03T08:56:58.072Z,53.70
2022-11-03T08:59:59.766Z,53.70
2022-11-03T09:03:02.020Z,53.60
2022-11-03T09:06:03.866Z,53.70
2022-11-03T09:12:27.307Z,53.50
2022-11-03T09:15:29.302Z,53.50
2022-11-03T09:18:32.222Z,53.50
2022-11-03T09:21:33.940Z,53.50
2022-11-03T09:24:35.668Z,53.40
2022-11-03T09:27:37.610Z,53.50
2022-11-03T09:30:39.293Z,53.40
2022-11-03T09:33:41.021Z,53.50
2022-11-03T09:36:42.777Z,53.40
2022-11-03T09:39:44.479Z,53.40
2022-11-03T09:42:46.338Z,53.40
2022-11-03T09:45:48.120Z,52.00
2022-11-03T09:48:49.878Z,52.60
2022-11-03T09:51:51.755Z,53.20
2022-11-03T09:54:55.592Z,53.20
2022-11-03T09:58:02.698Z,53.20
2022-11-03T10:01:04.809Z,53.20
2022-11-03T10:04:09.304Z,53.20
2022-11-03T10:07:11.426Z,53.20
2022-11-03T10:10:22.089Z,53.30
2022-11-03T10:13:29.507Z,53.20
2022-11-03T10:16:31.213Z,53.30
2022-11-03T10:19:33.078Z,53.30
2022-11-03T10:22:39.908Z,53.40
2022-11-03T10:25:44.784Z,53.30
2022-11-03T10:28:59.224Z,53.40
2022-11-03T10:32:00.969Z,53.40
2022-11-03T10:35:24.014Z,53.50
2022-11-03T10:38:44.427Z,53.50
2022-11-03T10:41:57.613Z,53.40
2022-11-03T10:45:17.760Z,53.50
2022-11-03T10:48:19.473Z,53.50
2022-11-03T10:51:21.229Z,53.50
2022-11-03T10:54:24.748Z,53.50
2022-11-03T10:57:27.693Z,53.70
2022-11-03T11:00:29.508Z,54.20
2022-11-03T11:03:32.007Z,53.80
2022-11-03T11:06:34.018Z,53.70
2022-11-03T11:09:35.726Z,53.80
2022-11-03T11:12:37.515Z,53.70
2022-11-03T11:15:47.210Z,53.80
2022-11-03T11:18:48.888Z,53.80
2022-11-03T11:21:53.686Z,53.80
2022-11-03T11:24:59.492Z,53.80
2022-11-03T11:28:11.782Z,53.90
2022-11-03T11:31:22.606Z,53.90
2022-11-03T11:34:24.277Z,53.90
2022-11-03T11:37:25.934Z,54.00
2022-11-03T11:40:27.597Z,53.90
2022-11-03T11:43:29.383Z,53.90
2022-11-03T11:46:41.038Z,54.00
2022-11-03T11:49:42.738Z,53.90
2022-11-03T11:53:06.140Z,53.90
2022-11-03T11:56:19.033Z,54.00
2022-11-03T11:59:25.984Z,54.10
2022-11-03T12:02:31.075Z,54.10
2022-11-03T12:05:35.594Z,54.10
2022-11-03T12:08:37.333Z,54.20
2022-11-03T12:11:45.881Z,54.20
2022-11-03T12:14:48.976Z,54.10
2022-11-03T12:17:50.743Z,54.00
2022-11-03T12:20:52.447Z,54.00
2022-11-03T12:23:54.184Z,54.10
2022-11-03T12:26:56.055Z,54.10
2022-11-03T12:29:59.674Z,54.20
2022-11-03T12:33:01.404Z,54.30
2022-11-03T12:36:03.247Z,54.10
2022-11-03T12:39:05.013Z,54.10
2022-11-03T12:42:07.298Z,54.00
2022-11-03T12:45:09.648Z,54.10
2022-11-03T12:48:11.623Z,54.40
2022-11-03T12:51:14.711Z,54.20
2022-11-03T12:54:16.701Z,54.20
2022-11-03T12:57:18.398Z,54.20
2022-11-03T13:00:20.211Z,54.30
2022-11-03T13:03:21.931Z,54.30
2022-11-03T13:06:23.632Z,54.60
2022-11-03T13:09:25.337Z,54.30
2022-11-03T13:12:32.998Z,54.40
2022-11-03T13:15:34.737Z,54.50
2022-11-03T13:18:36.605Z,54.50
2022-11-03T13:21:38.292Z,54.80
2022-11-03T13:24:40.114Z,54.70
2022-11-03T13:27:42.092Z,55.00
2022-11-03T13:30:43.795Z,54.90
2022-11-03T13:33:45.577Z,55.00
2022-11-03T13:36:47.315Z,55.10
2022-11-03T13:39:49.089Z,55.20
2022-11-03T13:42:50.847Z,55.30
2022-11-03T13:45:58.496Z,55.30
2022-11-03T13:52:24.143Z,55.40
2022-11-03T14:05:27.538Z,55.20
2022-11-03T14:08:29.264Z,55.20
2022-11-03T14:11:49.317Z,55.10
2022-11-03T14:14:51.029Z,55.10
2022-11-03T14:17:52.732Z,55.10
2022-11-03T14:20:54.418Z,55.20
2022-11-03T14:23:56.104Z,55.30
2022-11-03T14:26:57.780Z,55.80
2022-11-03T14:29:59.465Z,55.10
2022-11-03T14:33:01.145Z,55.00
2022-11-03T14:36:02.986Z,55.10
2022-11-03T14:39:04.685Z,55.30
2022-11-03T14:42:14.912Z,55.70
2022-11-03T14:45:16.640Z,55.50
2022-11-03T14:48:18.352Z,55.40
2022-11-03T14:51:20.311Z,55.40
2022-11-03T14:54:22.288Z,55.40
2022-11-03T14:57:23.977Z,55.60
2022-11-03T15:00:26.321Z,55.20
2022-11-03T15:03:28.378Z,55.10
2022-11-03T15:06:30.404Z,55.20
2022-11-03T15:09:32.110Z,55.10
2022-11-03T15:12:33.845Z,55.10
2022-11-03T15:15:36.352Z,55.10
2022-11-03T15:18:38.043Z,55.00
2022-11-03T15:21:39.766Z,55.10
2022-11-03T15:28:03.532Z,54.90
2022-11-03T15:31:05.846Z,55.00
2022-11-03T15:34:08.915Z,55.00
2022-11-03T15:37:10.864Z,55.00
2022-11-03T15:40:14.816Z,55.10
2022-11-03T15:43:16.715Z,55.10
2022-11-03T15:46:20.269Z,55.20
2022-11-03T15:49:22.184Z,55.20
2022-11-03T15:52:24.104Z,55.20
2022-11-03T15:55:26.270Z,55.20
2022-11-03T15:58:28.037Z,55.10
2022-11-03T16:01:29.812Z,55.10
2022-11-03T16:04:31.642Z,55.10
2022-11-03T16:07:33.533Z,55.10
2022-11-03T16:10:35.247Z,55.10
2022-11-03T16:13:37.228Z,55.10
2022-11-03T16:16:39.046Z,55.10
2022-11-03T16:19:40.743Z,55.00
2022-11-03T16:22:42.557Z,55.00
2022-11-03T16:25:44.370Z,55.10
2022-11-03T16:28:46.110Z,55.20
2022-11-03T16:31:49.085Z,55.20
2022-11-03T16:34:50.959Z,55.30
2022-11-03T16:37:52.735Z,55.20
2022-11-03T16:40:54.533Z,55.20
2022-11-03T16:43:56.548Z,55.10
2022-11-03T16:46:58.307Z,55.20
2022-11-03T16:50:00.143Z,55.10
2022-11-03T16:53:02.065Z,55.10
2022-11-03T16:56:03.967Z,55.10
2022-11-03T16:59:05.684Z,55.10
2022-11-03T17:02:09.812Z,55.00
2022-11-03T17:05:18.605Z,55.00
2022-11-03T17:11:42.350Z,54.80
2022-11-03T17:14:44.145Z,54.80
2022-11-03T17:17:45.887Z,54.90
2022-11-03T17:20:47.586Z,54.90
2022-11-03T17:23:49.269Z,55.00
2022-11-03T17:26:58.199Z,54.90
2022-11-03T17:30:10.746Z,54.80
2022-11-03T17:33:16.197Z,54.70
2022-11-03T17:36:17.943Z,54.70
2022-11-03T17:42:32.300Z,54.80
2022-11-03T17:45:36.167Z,54.80
2022-11-03T17:48:39.119Z,55.30
2022-11-03T17:51:42.137Z,54.80
2022-11-03T17:54:44.371Z,54.80
2022-11-03T17:57:46.480Z,54.80
2022-11-03T18:00:48.208Z,54.80
2022-11-03T18:03:50.034Z,54.80
2022-11-03T18:06:51.925Z,54.70
2022-11-03T18:09:53.855Z,54.70
2022-11-03T18:13:17.055Z,54.70
2022-11-03T18:16:18.805Z,54.60
2022-11-03T18:19:21.681Z,54.60
2022-11-03T18:22:23.605Z,54.50
2022-11-03T18:25:25.470Z,54.40
2022-11-03T18:28:27.612Z,54.60
2022-11-03T18:31:47.340Z,54.30
2022-11-03T18:34:49.066Z,54.30
2022-11-03T18:37:51.155Z,54.40
2022-11-03T18:40:53.139Z,54.30
2022-11-03T18:43:54.869Z,54.30
2022-11-03T18:46:57.905Z,54.30
2022-11-03T18:49:59.644Z,54.30
2022-11-03T18:53:01.707Z,54.30
2022-11-03T18:56:03.513Z,54.30
2022-11-03T18:59:05.416Z,54.30
2022-11-03T19:02:19.495Z,54.20
2022-11-03T19:05:21.556Z,54.30
2022-11-03T19:08:30.427Z,54.30
2022-11-03T19:11:32.139Z,54.30
2022-11-03T19:14:37.918Z,54.20
2022-11-03T19:17:39.969Z,54.20
2022-11-03T19:20:41.868Z,54.30
2022-11-03T19:23:47.828Z,54.10
2022-11-03T19:26:59.815Z,54.20
2022-11-03T19:30:03.650Z,54.10
2022-11-03T19:33:07.822Z,54.80
2022-11-03T19:36:09.844Z,54.20
2022-11-03T19:39:33.162Z,54.00
2022-11-03T19:42:37.836Z,54.10
2022-11-03T19:45:39.596Z,54.10
2022-11-03T19:48:41.334Z,54.10
2022-11-03T19:51:43.114Z,54.10
2022-11-03T19:54:48.490Z,54.20
2022-11-03T19:57:50.261Z,54.10
2022-11-03T20:00:53.043Z,54.10
2022-11-03T20:03:55.038Z,54.10
2022-11-03T20:06:56.998Z,54.10
2022-11-03T20:09:59.577Z,53.90
2022-11-03T20:13:01.717Z,53.90
2022-11-03T20:16:03.672Z,54.00
2022-11-03T20:19:05.380Z,54.00
2022-11-03T20:22:17.764Z,54.00
2022-11-03T20:25:25.454Z,54.00
2022-11-03T20:28:29.964Z,54.00
2022-11-03T20:31:31.693Z,54.00
2022-11-03T20:34:33.435Z,54.00
2022-11-03T20:37:35.137Z,54.00
2022-11-03T20:40:36.851Z,54.00
2022-11-03T20:43:42.431Z,54.00
2022-11-03T20:46:44.245Z,54.00
2022-11-03T20:49:46.089Z,54.00
2022-11-03T20:52:48.299Z,54.00
2022-11-03T20:55:50.824Z,53.90
2022-11-03T20:58:53.085Z,54.00
2022-11-03T21:01:54.980Z,54.00
2022-11-03T21:04:56.835Z,54.00
2022-11-03T21:07:58.530Z,54.00
2022-11-03T21:11:18.719Z,54.00
2022-11-03T21:14:29.510Z,54.10
2022-11-03T21:17:49.697Z,54.00
2022-11-03T21:20:51.425Z,54.00
2022-11-03T21:23:53.326Z,54.00
2022-11-03T21:26:55.033Z,53.90
2022-11-03T21:30:00.351Z,53.90
2022-11-03T21:33:02.273Z,53.90
2022-11-03T21:36:04.555Z,53.90
2022-11-03T21:39:06.250Z,54.00
2022-11-03T21:42:28.384Z,53.90
2022-11-03T21:45:30.110Z,53.90
2022-11-03T21:48:50.318Z,53.90
2022-11-03T21:51:52.094Z,53.90
2022-11-03T21:54:53.800Z,53.90
2022-11-03T21:57:55.488Z,53.90
2022-11-03T22:01:03.565Z,54.00
2022-11-03T22:04:05.998Z,54.00
2022-11-03T22:07:07.990Z,53.90
2022-11-03T22:10:09.909Z,53.90
2022-11-03T22:13:12.087Z,53.90
2022-11-03T22:16:33.085Z,54.00
2022-11-03T22:19:53.736Z,54.00
2022-11-03T22:23:14.062Z,54.00
2022-11-03T22:26:35.454Z,54.10
2022-11-03T22:29:55.904Z,54.00
2022-11-03T22:32:57.992Z,54.00
2022-11-03T22:36:21.741Z,54.00
2022-11-03T22:39:42.197Z,54.00
2022-11-03T22:43:03.395Z,54.00
2022-11-03T22:46:05.460Z,54.00
2022-11-03T22:49:07.178Z,54.00
2022-11-03T22:52:10.551Z,54.00
2022-11-03T22:55:12.221Z,54.00
2022-11-03T22:58:13.928Z,54.10
2022-11-03T23:01:18.297Z,54.00
2022-11-03T23:04:20.136Z,54.10
2022-11-03T23:07:23.049Z,54.00
2022-11-03T23:10:28.456Z,54.10
2022-11-03T23:13:30.240Z,54.10
2022-11-03T23:16:41.242Z,54.10
2022-11-03T23:20:01.878Z,54.10
2022-11-03T23:23:04.959Z,54.10
2022-11-03T23:26:08.969Z,54.10
2022-11-03T23:29:15.158Z,54.10
2022-11-03T23:32:16.856Z,54.10
2022-11-03T23:35:18.543Z,54.10
2022-11-03T23:38:20.227Z,54.10
2022-11-03T23:41:22.528Z,54.10
2022-11-03T23:44:24.229Z,54.10
2022-11-03T23:47:44.699Z,54.10
2022-11-03T23:50:46.669Z,54.10
2022-11-03T23:53:49.116Z,54.10
2022-11-03T23:57:09.582Z,54.20
